Аэропорт: Кокшетау. Кокшетау

ICAO: UACK

METAR:
2019/01/21 11:30
UACK 211130Z 29005MPS CAVOK M10/M11 Q1018 R20/820245 NOSIG RMK QFE740/0987
METAR:
2014/11/02 12:00
TAF UACK 021140Z 0212/0221 CNL